sensor_id;sensor_type;location;lat;lon;timestamp;pressure;altitude;pressure_sealevel;temperature;humidity
73024;BME280;61199;47.526;8.538;2023-05-02T00:00:41;96648.34;;;13.26;76.63
73024;BME280;61199;47.526;8.538;2023-05-02T00:03:08;96649.72;;;13.57;75.58
73024;BME280;61199;47.526;8.538;2023-05-02T00:05:35;96643.69;;;13.64;74.69
73024;BME280;61199;47.526;8.538;2023-05-02T00:08:02;96648.59;;;13.77;74.58
73024;BME280;61199;47.526;8.538;2023-05-02T00:10:28;96641.56;;;13.95;74.14
73024;BME280;61199;47.526;8.538;2023-05-02T00:12:54;96644.59;;;14.00;73.43
73024;BME280;61199;47.526;8.538;2023-05-02T00:15:21;96639.06;;;13.76;74.16
73024;BME280;61199;47.526;8.538;2023-05-02T00:17:48;96636.28;;;13.77;74.12
73024;BME280;61199;47.526;8.538;2023-05-02T00:20:14;96627.00;;;13.73;74.58
73024;BME280;61199;47.526;8.538;2023-05-02T00:22:41;96624.47;;;13.37;75.79
73024;BME280;61199;47.526;8.538;2023-05-02T00:25:08;96622.69;;;13.10;77.19
73024;BME280;61199;47.526;8.538;2023-05-02T00:27:35;96619.66;;;12.96;77.75
73024;BME280;61199;47.526;8.538;2023-05-02T00:30:01;96626.59;;;12.97;77.57
73024;BME280;61199;47.526;8.538;2023-05-02T00:32:31;96629.63;;;13.02;77.01
73024;BME280;61199;47.526;8.538;2023-05-02T00:34:58;96619.94;;;12.93;77.81
73024;BME280;61199;47.526;8.538;2023-05-02T00:37:27;96622.59;;;12.83;78.21
73024;BME280;61199;47.526;8.538;2023-05-02T00:39:57;96624.41;;;12.83;78.48
73024;BME280;61199;47.526;8.538;2023-05-02T00:42:24;96619.97;;;12.83;78.60
73024;BME280;61199;47.526;8.538;2023-05-02T00:44:50;96621.19;;;12.98;77.99
73024;BME280;61199;47.526;8.538;2023-05-02T00:47:17;96622.69;;;13.01;77.97
73024;BME280;61199;47.526;8.538;2023-05-02T00:49:43;96625.38;;;13.18;77.07
73024;BME280;61199;47.526;8.538;2023-05-02T00:52:09;96621.94;;;13.45;76.59
73024;BME280;61199;47.526;8.538;2023-05-02T00:54:37;96617.91;;;13.68;75.37
73024;BME280;61199;47.526;8.538;2023-05-02T00:57:05;96626.44;;;13.35;76.20
73024;BME280;61199;47.526;8.538;2023-05-02T00:59:34;96619.53;;;12.97;78.04
73024;BME280;61199;47.526;8.538;2023-05-02T01:02:24;96620.91;;;13.01;77.96
73024;BME280;61199;47.526;8.538;2023-05-02T01:05:10;96615.13;;;13.25;77.10
73024;BME280;61199;47.526;8.538;2023-05-02T01:07:57;96626.19;;;13.28;77.10
73024;BME280;61199;47.526;8.538;2023-05-02T01:13:23;96631.50;;;13.19;77.37
73024;BME280;61199;47.526;8.538;2023-05-02T01:15:52;96620.84;;;13.11;77.71
73024;BME280;61199;47.526;8.538;2023-05-02T01:18:24;96632.22;;;13.11;77.83
73024;BME280;61199;47.526;8.538;2023-05-02T01:21:06;96623.28;;;12.95;78.37
73024;BME280;61199;47.526;8.538;2023-05-02T01:23:57;96633.28;;;13.18;77.68
73024;BME280;61199;47.526;8.538;2023-05-02T01:29:14;96631.50;;;13.19;76.78
73024;BME280;61199;47.526;8.538;2023-05-02T01:31:43;96630.22;;;12.77;77.65
73024;BME280;61199;47.526;8.538;2023-05-02T01:34:11;96630.22;;;12.77;78.08
73024;BME280;61199;47.526;8.538;2023-05-02T01:36:43;96635.53;;;12.58;78.21
73024;BME280;61199;47.526;8.538;2023-05-02T01:39:21;96640.22;;;12.64;78.71
73024;BME280;61199;47.526;8.538;2023-05-02T01:41:51;96639.75;;;12.87;77.83
73024;BME280;61199;47.526;8.538;2023-05-02T01:44:22;96641.16;;;12.82;77.75
73024;BME280;61199;47.526;8.538;2023-05-02T01:46:50;96645.22;;;12.48;78.45
73024;BME280;61199;47.526;8.538;2023-05-02T01:49:18;96648.09;;;12.54;78.17
73024;BME280;61199;47.526;8.538;2023-05-02T01:51:47;96652.22;;;12.85;77.31
73024;BME280;61199;47.526;8.538;2023-05-02T01:54:16;96652.38;;;12.65;77.37
73024;BME280;61199;47.526;8.538;2023-05-02T01:56:43;96648.19;;;12.81;76.65
73024;BME280;61199;47.526;8.538;2023-05-02T01:59:13;96648.03;;;13.02;76.14
73024;BME280;61199;47.526;8.538;2023-05-02T02:01:41;96650.81;;;13.27;75.53
73024;BME280;61199;47.526;8.538;2023-05-02T02:04:10;96651.69;;;13.45;74.98
73024;BME280;61199;47.526;8.538;2023-05-02T02:06:38;96648.91;;;13.56;74.26
73024;BME280;61199;47.526;8.538;2023-05-02T02:09:05;96653.22;;;13.48;73.88
73024;BME280;61199;47.526;8.538;2023-05-02T02:11:46;96656.50;;;13.59;73.88
73024;BME280;61199;47.526;8.538;2023-05-02T02:14:20;96657.59;;;13.57;73.24
73024;BME280;61199;47.526;8.538;2023-05-02T02:16:49;96665.69;;;13.73;72.76
73024;BME280;61199;47.526;8.538;2023-05-02T02:19:19;96666.28;;;13.67;72.83
73024;BME280;61199;47.526;8.538;2023-05-02T02:21:47;96670.81;;;13.74;72.41
73024;BME280;61199;47.526;8.538;2023-05-02T02:24:16;96668.25;;;13.82;72.34
73024;BME280;61199;47.526;8.538;2023-05-02T02:26:43;96668.69;;;13.78;72.32
73024;BME280;61199;47.526;8.538;2023-05-02T02:29:11;96660.34;;;13.82;71.95
73024;BME280;61199;47.526;8.538;2023-05-02T02:31:38;96662.47;;;13.79;72.39
73024;BME280;61199;47.526;8.538;2023-05-02T02:34:05;96664.72;;;13.74;72.60
73024;BME280;61199;47.526;8.538;2023-05-02T02:36:44;96668.41;;;13.81;72.61
73024;BME280;61199;47.526;8.538;2023-05-02T02:45:21;96665.16;;;13.87;71.78
73024;BME280;61199;47.526;8.538;2023-05-02T02:54:08;96668.00;;;13.58;72.39
73024;BME280;61199;47.526;8.538;2023-05-02T02:57:00;96673.03;;;13.52;72.54
73024;BME280;61199;47.526;8.538;2023-05-02T02:59:41;96675.44;;;13.63;72.88
73024;BME280;61199;47.526;8.538;2023-05-02T03:02:14;96673.91;;;13.70;72.29
73024;BME280;61199;47.526;8.538;2023-05-02T03:04:43;96676.53;;;13.70;72.01
73024;BME280;61199;47.526;8.538;2023-05-02T03:07:12;96677.56;;;13.77;72.02
73024;BME280;61199;47.526;8.538;2023-05-02T03:09:42;96679.75;;;13.64;72.04
73024;BME280;61199;47.526;8.538;2023-05-02T03:12:09;96673.47;;;13.47;72.40
73024;BME280;61199;47.526;8.538;2023-05-02T03:14:36;96675.34;;;13.28;73.04
73024;BME280;61199;47.526;8.538;2023-05-02T03:17:03;96675.78;;;13.23;73.34
73024;BME280;61199;47.526;8.538;2023-05-02T03:19:30;96677.75;;;13.12;73.89
73024;BME280;61199;47.526;8.538;2023-05-02T03:21:56;96683.63;;;12.96;74.16
73024;BME280;61199;47.526;8.538;2023-05-02T03:24:23;96685.81;;;13.01;74.51
73024;BME280;61199;47.526;8.538;2023-05-02T03:26:53;96683.97;;;13.20;73.63
73024;BME280;61199;47.526;8.538;2023-05-02T03:29:20;96688.09;;;13.23;73.77
73024;BME280;61199;47.526;8.538;2023-05-02T03:31:47;96695.28;;;13.30;73.49
73024;BME280;61199;47.526;8.538;2023-05-02T03:34:13;96693.66;;;13.47;72.96
73024;BME280;61199;47.526;8.538;2023-05-02T03:36:39;96699.28;;;13.61;72.38
73024;BME280;61199;47.526;8.538;2023-05-02T03:39:06;96695.53;;;13.64;71.69
73024;BME280;61199;47.526;8.538;2023-05-02T03:41:33;96698.06;;;13.56;71.93
73024;BME280;61199;47.526;8.538;2023-05-02T03:43:59;96694.63;;;13.19;72.56
73024;BME280;61199;47.526;8.538;2023-05-02T03:46:25;96699.19;;;13.17;72.81
73024;BME280;61199;47.526;8.538;2023-05-02T03:48:52;96702.41;;;12.82;73.56
73024;BME280;61199;47.526;8.538;2023-05-02T03:51:18;96699.13;;;12.71;74.60
73024;BME280;61199;47.526;8.538;2023-05-02T03:53:45;96702.97;;;12.86;74.44
73024;BME280;61199;47.526;8.538;2023-05-02T03:56:16;96702.88;;;12.68;75.07
73024;BME280;61199;47.526;8.538;2023-05-02T03:58:45;96713.38;;;12.40;75.77
73024;BME280;61199;47.526;8.538;2023-05-02T04:01:15;96710.66;;;12.51;75.61
73024;BME280;61199;47.526;8.538;2023-05-02T04:03:44;96708.84;;;12.42;75.35
73024;BME280;61199;47.526;8.538;2023-05-02T04:06:10;96718.78;;;12.76;74.54
73024;BME280;61199;47.526;8.538;2023-05-02T04:08:38;96723.22;;;12.57;75.09
73024;BME280;61199;47.526;8.538;2023-05-02T04:11:04;96717.50;;;12.80;74.51
73024;BME280;61199;47.526;8.538;2023-05-02T04:13:31;96713.75;;;13.02;73.72
73024;BME280;61199;47.526;8.538;2023-05-02T04:15:57;96713.88;;;13.19;73.55
73024;BME280;61199;47.526;8.538;2023-05-02T04:18:24;96718.09;;;13.39;72.65
73024;BME280;61199;47.526;8.538;2023-05-02T04:20:50;96718.03;;;13.49;72.46
73024;BME280;61199;47.526;8.538;2023-05-02T04:23:17;96722.16;;;13.61;71.93
73024;BME280;61199;47.526;8.538;2023-05-02T04:25:53;96723.66;;;13.63;71.79
73024;BME280;61199;47.526;8.538;2023-05-02T04:28:20;96720.97;;;13.73;71.76
73024;BME280;61199;47.526;8.538;2023-05-02T04:30:48;96726.63;;;13.78;71.46
73024;BME280;61199;47.526;8.538;2023-05-02T04:33:16;96726.19;;;13.82;71.28
73024;BME280;61199;47.526;8.538;2023-05-02T04:35:43;96723.50;;;13.92;70.74
73024;BME280;61199;47.526;8.538;2023-05-02T04:38:09;96722.34;;;13.77;70.82
73024;BME280;61199;47.526;8.538;2023-05-02T04:40:36;96726.34;;;13.81;70.67
73024;BME280;61199;47.526;8.538;2023-05-02T04:43:02;96731.22;;;13.76;70.87
73024;BME280;61199;47.526;8.538;2023-05-02T04:45:28;96724.81;;;13.78;70.95
73024;BME280;61199;47.526;8.538;2023-05-02T04:47:55;96740.06;;;13.84;70.78
73024;BME280;61199;47.526;8.538;2023-05-02T04:50:22;96745.84;;;13.88;70.44
73024;BME280;61199;47.526;8.538;2023-05-02T04:52:48;96750.28;;;13.87;71.06
73024;BME280;61199;47.526;8.538;2023-05-02T04:55:15;96751.63;;;13.91;70.42
73024;BME280;61199;47.526;8.538;2023-05-02T04:57:41;96758.63;;;13.83;70.93
73024;BME280;61199;47.526;8.538;2023-05-02T05:00:08;96767.50;;;13.82;71.14
73024;BME280;61199;47.526;8.538;2023-05-02T05:02:34;96767.81;;;13.79;71.17
73024;BME280;61199;47.526;8.538;2023-05-02T05:05:01;96772.53;;;13.75;71.74
73024;BME280;61199;47.526;8.538;2023-05-02T05:07:27;96788.16;;;13.77;71.65
73024;BME280;61199;47.526;8.538;2023-05-02T05:09:54;96787.72;;;13.81;71.36
73024;BME280;61199;47.526;8.538;2023-05-02T05:12:20;96795.38;;;13.75;71.63
73024;BME280;61199;47.526;8.538;2023-05-02T05:14:46;96792.75;;;13.75;71.72
73024;BME280;61199;47.526;8.538;2023-05-02T05:17:13;96803.03;;;13.59;72.43
73024;BME280;61199;47.526;8.538;2023-05-02T05:19:39;96807.34;;;13.60;72.46
73024;BME280;61199;47.526;8.538;2023-05-02T05:22:06;96809.69;;;13.63;72.52
73024;BME280;61199;47.526;8.538;2023-05-02T05:24:33;96820.06;;;13.64;72.77
73024;BME280;61199;47.526;8.538;2023-05-02T05:26:59;96821.59;;;13.67;72.77
73024;BME280;61199;47.526;8.538;2023-05-02T05:29:26;96821.59;;;13.67;72.64
73024;BME280;61199;47.526;8.538;2023-05-02T05:31:52;96821.03;;;13.73;72.63
73024;BME280;61199;47.526;8.538;2023-05-02T05:34:18;96831.25;;;13.76;72.24
73024;BME280;61199;47.526;8.538;2023-05-02T05:36:45;96834.94;;;13.56;73.96
73024;BME280;61199;47.526;8.538;2023-05-02T05:39:11;96838.53;;;13.45;74.62
73024;BME280;61199;47.526;8.538;2023-05-02T05:41:38;96838.97;;;13.41;74.88
73024;BME280;61199;47.526;8.538;2023-05-02T05:44:04;96832.91;;;13.40;74.74
73024;BME280;61199;47.526;8.538;2023-05-02T05:46:30;96829.69;;;13.46;74.24
73024;BME280;61199;47.526;8.538;2023-05-02T05:48:57;96839.69;;;13.43;74.36
73024;BME280;61199;47.526;8.538;2023-05-02T05:51:23;96834.56;;;13.41;74.47
73024;BME280;61199;47.526;8.538;2023-05-02T05:53:50;96830.50;;;13.56;73.95
73024;BME280;61199;47.526;8.538;2023-05-02T05:56:17;96833.78;;;13.68;73.66
73024;BME280;61199;47.526;8.538;2023-05-02T05:58:43;96835.72;;;13.75;73.47
73024;BME280;61199;47.526;8.538;2023-05-02T06:01:10;96837.47;;;13.84;72.93
73024;BME280;61199;47.526;8.538;2023-05-02T06:03:36;96836.75;;;13.92;72.69
73024;BME280;61199;47.526;8.538;2023-05-02T06:06:03;96830.06;;;13.97;72.58
73024;BME280;61199;47.526;8.538;2023-05-02T06:08:30;96831.53;;;14.09;72.40
73024;BME280;61199;47.526;8.538;2023-05-02T06:10:56;96839.78;;;13.97;72.12
73024;BME280;61199;47.526;8.538;2023-05-02T06:13:22;96840.91;;;13.94;72.25
73024;BME280;61199;47.526;8.538;2023-05-02T06:15:49;96840.47;;;13.99;72.01
73024;BME280;61199;47.526;8.538;2023-05-02T06:18:15;96840.81;;;14.13;70.92
73024;BME280;61199;47.526;8.538;2023-05-02T06:20:42;96845.00;;;14.06;71.08
73024;BME280;61199;47.526;8.538;2023-05-02T06:23:08;96844.00;;;14.17;71.18
73024;BME280;61199;47.526;8.538;2023-05-02T06:25:37;96842.72;;;14.30;70.88
73024;BME280;61199;47.526;8.538;2023-05-02T06:28:04;96843.53;;;14.31;71.09
73024;BME280;61199;47.526;8.538;2023-05-02T06:30:31;96839.19;;;14.39;70.90
73024;BME280;61199;47.526;8.538;2023-05-02T06:32:57;96840.97;;;14.21;71.39
73024;BME280;61199;47.526;8.538;2023-05-02T06:35:24;96848.78;;;14.31;70.34
73024;BME280;61199;47.526;8.538;2023-05-02T06:37:50;96851.19;;;13.88;72.07
73024;BME280;61199;47.526;8.538;2023-05-02T06:40:16;96854.31;;;13.55;72.81
73024;BME280;61199;47.526;8.538;2023-05-02T06:42:43;96858.22;;;13.32;73.22
73024;BME280;61199;47.526;8.538;2023-05-02T06:45:09;96858.78;;;13.35;73.74
73024;BME280;61199;47.526;8.538;2023-05-02T06:47:36;96861.41;;;13.35;73.66
73024;BME280;61199;47.526;8.538;2023-05-02T06:50:02;96861.00;;;13.40;73.85
73024;BME280;61199;47.526;8.538;2023-05-02T06:52:29;96864.81;;;13.74;72.87
73024;BME280;61199;47.526;8.538;2023-05-02T06:54:56;96869.13;;;13.65;72.84
73024;BME280;61199;47.526;8.538;2023-05-02T06:57:23;96870.06;;;13.74;72.40
73024;BME280;61199;47.526;8.538;2023-05-02T06:59:50;96863.94;;;13.83;72.20
73024;BME280;61199;47.526;8.538;2023-05-02T07:02:16;96869.94;;;14.12;71.37
73024;BME280;61199;47.526;8.538;2023-05-02T07:04:42;96873.97;;;14.16;70.94
73024;BME280;61199;47.526;8.538;2023-05-02T07:07:09;96875.53;;;13.99;71.72
73024;BME280;61199;47.526;8.538;2023-05-02T07:09:35;96871.00;;;13.82;72.86
73024;BME280;61199;47.526;8.538;2023-05-02T07:12:02;96880.88;;;14.17;72.03
73024;BME280;61199;47.526;8.538;2023-05-02T07:14:32;96884.34;;;14.27;71.74
73024;BME280;61199;47.526;8.538;2023-05-02T07:16:58;96888.00;;;13.97;72.49
73024;BME280;61199;47.526;8.538;2023-05-02T07:19:24;96888.63;;;13.72;72.89
73024;BME280;61199;47.526;8.538;2023-05-02T07:21:51;96888.38;;;13.66;73.63
73024;BME280;61199;47.526;8.538;2023-05-02T07:24:17;96887.16;;;13.51;73.55
73024;BME280;61199;47.526;8.538;2023-05-02T07:26:44;96881.19;;;13.58;73.33
73024;BME280;61199;47.526;8.538;2023-05-02T07:29:11;96880.09;;;13.61;73.74
73024;BME280;61199;47.526;8.538;2023-05-02T07:31:37;96889.81;;;13.41;74.45
73024;BME280;61199;47.526;8.538;2023-05-02T07:34:04;96876.94;;;13.38;75.04
73024;BME280;61199;47.526;8.538;2023-05-02T07:36:30;96887.28;;;13.59;73.87
73024;BME280;61199;47.526;8.538;2023-05-02T07:38:57;96877.91;;;13.28;73.11
73024;BME280;61199;47.526;8.538;2023-05-02T07:41:24;96882.34;;;13.27;73.03
73024;BME280;61199;47.526;8.538;2023-05-02T07:43:50;96889.00;;;13.12;73.31
73024;BME280;61199;47.526;8.538;2023-05-02T07:46:16;96885.66;;;13.20;73.02
73024;BME280;61199;47.526;8.538;2023-05-02T07:48:43;96889.09;;;13.58;71.83
73024;BME280;61199;47.526;8.538;2023-05-02T07:51:09;96877.78;;;13.94;70.79
73024;BME280;61199;47.526;8.538;2023-05-02T07:53:36;96881.53;;;14.28;70.06
73024;BME280;61199;47.526;8.538;2023-05-02T07:56:03;96878.38;;;14.52;68.48
73024;BME280;61199;47.526;8.538;2023-05-02T07:58:31;96885.19;;;14.72;67.87
73024;BME280;61199;47.526;8.538;2023-05-02T08:00:58;96886.13;;;14.97;66.76
73024;BME280;61199;47.526;8.538;2023-05-02T08:03:24;96884.78;;;15.11;65.93
73024;BME280;61199;47.526;8.538;2023-05-02T08:05:51;96882.72;;;15.22;65.08
73024;BME280;61199;47.526;8.538;2023-05-02T08:08:17;96879.75;;;15.35;64.47
73024;BME280;61199;47.526;8.538;2023-05-02T08:10:44;96882.38;;;15.52;63.65
73024;BME280;61199;47.526;8.538;2023-05-02T08:13:11;96886.72;;;15.61;63.63
73024;BME280;61199;47.526;8.538;2023-05-02T08:15:38;96885.81;;;15.53;63.15
73024;BME280;61199;47.526;8.538;2023-05-02T08:18:04;96889.16;;;15.37;63.08
73024;BME280;61199;47.526;8.538;2023-05-02T08:20:30;96890.16;;;15.36;63.85
73024;BME280;61199;47.526;8.538;2023-05-02T08:22:57;96895.59;;;15.60;63.22
73024;BME280;61199;47.526;8.538;2023-05-02T08:25:25;96889.72;;;15.66;62.03
73024;BME280;61199;47.526;8.538;2023-05-02T08:27:52;96891.38;;;15.67;62.13
73024;BME280;61199;47.526;8.538;2023-05-02T08:30:18;96896.25;;;15.54;62.06
73024;BME280;61199;47.526;8.538;2023-05-02T08:32:45;96896.00;;;15.65;61.44
73024;BME280;61199;47.526;8.538;2023-05-02T08:35:11;96894.00;;;15.67;60.97
73024;BME280;61199;47.526;8.538;2023-05-02T08:37:38;96887.75;;;15.68;61.79
73024;BME280;61199;47.526;8.538;2023-05-02T08:40:05;96893.41;;;15.73;61.58
73024;BME280;61199;47.526;8.538;2023-05-02T08:42:40;96899.81;;;15.88;61.46
73024;BME280;61199;47.526;8.538;2023-05-02T08:45:07;96900.53;;;15.98;61.19
73024;BME280;61199;47.526;8.538;2023-05-02T08:47:35;96901.44;;;16.15;60.93
73024;BME280;61199;47.526;8.538;2023-05-02T08:50:02;96904.31;;;16.29;60.34
73024;BME280;61199;47.526;8.538;2023-05-02T08:52:31;96898.72;;;16.32;60.57
73024;BME280;61199;47.526;8.538;2023-05-02T08:55:00;96911.25;;;16.30;61.16
73024;BME280;61199;47.526;8.538;2023-05-02T08:57:28;96907.91;;;16.46;60.74
73024;BME280;61199;47.526;8.538;2023-05-02T08:59:55;96905.47;;;16.52;59.53
73024;BME280;61199;47.526;8.538;2023-05-02T09:05:11;96913.06;;;16.55;58.31
73024;BME280;61199;47.526;8.538;2023-05-02T09:07:47;96909.47;;;16.64;58.13
73024;BME280;61199;47.526;8.538;2023-05-02T09:10:14;96910.00;;;16.68;58.19
73024;BME280;61199;47.526;8.538;2023-05-02T09:12:41;96910.63;;;16.62;57.65
73024;BME280;61199;47.526;8.538;2023-05-02T09:15:08;96913.63;;;16.67;57.65
73024;BME280;61199;47.526;8.538;2023-05-02T09:17:42;96912.97;;;16.73;57.82
73024;BME280;61199;47.526;8.538;2023-05-02T09:20:14;96909.19;;;16.75;57.83
73024;BME280;61199;47.526;8.538;2023-05-02T09:22:51;96916.47;;;16.81;57.47
73024;BME280;61199;47.526;8.538;2023-05-02T09:25:20;96922.28;;;16.85;57.29
73024;BME280;61199;47.526;8.538;2023-05-02T09:27:49;96917.97;;;16.76;56.88
73024;BME280;61199;47.526;8.538;2023-05-02T09:30:24;96919.16;;;16.89;57.03
73024;BME280;61199;47.526;8.538;2023-05-02T09:32:51;96918.50;;;16.95;56.92
73024;BME280;61199;47.526;8.538;2023-05-02T09:35:20;96921.97;;;16.88;57.28
73024;BME280;61199;47.526;8.538;2023-05-02T09:37:58;96920.75;;;16.74;57.38
73024;BME280;61199;47.526;8.538;2023-05-02T09:40:25;96919.44;;;16.78;57.98
73024;BME280;61199;47.526;8.538;2023-05-02T09:42:53;96918.31;;;16.89;57.77
73024;BME280;61199;47.526;8.538;2023-05-02T09:45:24;96908.94;;;17.10;57.49
73024;BME280;61199;47.526;8.538;2023-05-02T09:47:51;96919.06;;;17.23;57.07
73024;BME280;61199;47.526;8.538;2023-05-02T09:50:35;96911.13;;;17.31;56.80
73024;BME280;61199;47.526;8.538;2023-05-02T09:53:03;96910.00;;;17.41;56.40
73024;BME280;61199;47.526;8.538;2023-05-02T09:55:30;96918.13;;;17.40;56.37
73024;BME280;61199;47.526;8.538;2023-05-02T09:57:58;96920.28;;;17.36;56.34
73024;BME280;61199;47.526;8.538;2023-05-02T10:00:43;96921.44;;;17.42;54.48
73024;BME280;61199;47.526;8.538;2023-05-02T10:03:15;96921.47;;;17.58;54.06
73024;BME280;61199;47.526;8.538;2023-05-02T10:05:46;96924.25;;;17.56;54.78
73024;BME280;61199;47.526;8.538;2023-05-02T10:08:13;96929.06;;;17.53;55.08
73024;BME280;61199;47.526;8.538;2023-05-02T10:10:45;96928.53;;;17.41;55.01
73024;BME280;61199;47.526;8.538;2023-05-02T10:13:12;96921.25;;;17.51;54.92
73024;BME280;61199;47.526;8.538;2023-05-02T10:15:42;96923.59;;;17.70;54.77
73024;BME280;61199;47.526;8.538;2023-05-02T10:18:14;96914.31;;;17.58;54.64
73024;BME280;61199;47.526;8.538;2023-05-02T10:20:47;96922.13;;;17.68;53.81
73024;BME280;61199;47.526;8.538;2023-05-02T10:23:21;96917.47;;;17.62;53.78
73024;BME280;61199;47.526;8.538;2023-05-02T10:25:50;96918.81;;;17.58;53.47
73024;BME280;61199;47.526;8.538;2023-05-02T10:28:17;96916.63;;;17.77;53.43
73024;BME280;61199;47.526;8.538;2023-05-02T10:30:44;96913.31;;;17.83;54.16
73024;BME280;61199;47.526;8.538;2023-05-02T10:33:12;96917.78;;;17.75;54.61
73024;BME280;61199;47.526;8.538;2023-05-02T10:35:42;96914.31;;;17.82;53.83
73024;BME280;61199;47.526;8.538;2023-05-02T10:38:10;96909.19;;;17.88;53.37
73024;BME280;61199;47.526;8.538;2023-05-02T10:40:38;96912.31;;;18.00;51.90
73024;BME280;61199;47.526;8.538;2023-05-02T10:43:06;96910.81;;;17.97;52.28
73024;BME280;61199;47.526;8.538;2023-05-02T10:45:36;96916.63;;;17.85;52.73
73024;BME280;61199;47.526;8.538;2023-05-02T10:48:22;96911.97;;;17.87;53.22
73024;BME280;61199;47.526;8.538;2023-05-02T10:50:51;96897.59;;;17.82;54.43
73024;BME280;61199;47.526;8.538;2023-05-02T10:53:33;96904.38;;;17.84;54.69
73024;BME280;61199;47.526;8.538;2023-05-02T10:56:11;96898.91;;;17.86;54.51
73024;BME280;61199;47.526;8.538;2023-05-02T10:58:40;96890.28;;;17.99;53.99
73024;BME280;61199;47.526;8.538;2023-05-02T11:04:12;96890.25;;;18.15;54.24
73024;BME280;61199;47.526;8.538;2023-05-02T11:09:31;96894.34;;;18.34;52.95
73024;BME280;61199;47.526;8.538;2023-05-02T11:11:58;96894.34;;;18.34;52.93
73024;BME280;61199;47.526;8.538;2023-05-02T11:19:25;96891.75;;;18.64;52.03
73024;BME280;61199;47.526;8.538;2023-05-02T11:24:50;96886.91;;;18.76;51.46
73024;BME280;61199;47.526;8.538;2023-05-02T11:32:24;96880.41;;;19.09;50.63
73024;BME280;61199;47.526;8.538;2023-05-02T11:34:52;96887.03;;;19.13;48.33
73024;BME280;61199;47.526;8.538;2023-05-02T11:37:20;96883.34;;;19.14;48.55
73024;BME280;61199;47.526;8.538;2023-05-02T11:39:47;96893.09;;;18.99;48.60
73024;BME280;61199;47.526;8.538;2023-05-02T11:42:30;96886.66;;;19.16;47.48
73024;BME280;61199;47.526;8.538;2023-05-02T11:44:59;96897.88;;;19.03;47.97
73024;BME280;61199;47.526;8.538;2023-05-02T11:47:27;96891.03;;;19.09;48.37
73024;BME280;61199;47.526;8.538;2023-05-02T11:49:54;96895.44;;;18.94;48.82
73024;BME280;61199;47.526;8.538;2023-05-02T11:52:22;96898.34;;;19.07;48.40
73024;BME280;61199;47.526;8.538;2023-05-02T11:54:49;96894.56;;;19.01;48.69
73024;BME280;61199;47.526;8.538;2023-05-02T11:57:18;96895.03;;;19.05;48.35
73024;BME280;61199;47.526;8.538;2023-05-02T12:00:03;96891.56;;;19.04;48.43
73024;BME280;61199;47.526;8.538;2023-05-02T12:05:03;96905.91;;;18.49;50.49
73024;BME280;61199;47.526;8.538;2023-05-02T12:10:01;96907.44;;;18.35;51.83
73024;BME280;61199;47.526;8.538;2023-05-02T12:12:27;96920.91;;;18.18;53.45
73024;BME280;61199;47.526;8.538;2023-05-02T12:14:53;96918.28;;;18.02;56.30
73024;BME280;61199;47.526;8.538;2023-05-02T12:17:20;96927.56;;;17.90;57.17
73024;BME280;61199;47.526;8.538;2023-05-02T12:19:47;96933.53;;;17.84;57.51
73024;BME280;61199;47.526;8.538;2023-05-02T12:22:15;96928.06;;;17.70;56.03
73024;BME280;61199;47.526;8.538;2023-05-02T12:24:42;96928.72;;;17.72;55.98
73024;BME280;61199;47.526;8.538;2023-05-02T12:27:10;96938.19;;;17.82;55.87
73024;BME280;61199;47.526;8.538;2023-05-02T12:29:46;96928.88;;;17.78;53.57
73024;BME280;61199;47.526;8.538;2023-05-02T12:32:14;96936.19;;;17.76;51.95
73024;BME280;61199;47.526;8.538;2023-05-02T12:34:44;96932.19;;;17.88;51.87
73024;BME280;61199;47.526;8.538;2023-05-02T12:37:10;96940.00;;;17.97;52.08
73024;BME280;61199;47.526;8.538;2023-05-02T12:39:40;96944.63;;;18.03;52.54
73024;BME280;61199;47.526;8.538;2023-05-02T12:42:11;96940.28;;;18.10;53.25
73024;BME280;61199;47.526;8.538;2023-05-02T12:44:39;96940.63;;;18.15;52.85
73024;BME280;61199;47.526;8.538;2023-05-02T12:47:07;96934.03;;;17.88;54.75
73024;BME280;61199;47.526;8.538;2023-05-02T12:49:50;96936.53;;;17.73;54.12
73024;BME280;61199;47.526;8.538;2023-05-02T12:52:18;96941.13;;;17.79;54.51
73024;BME280;61199;47.526;8.538;2023-05-02T12:54:44;96933.53;;;17.60;54.97
73024;BME280;61199;47.526;8.538;2023-05-02T12:57:24;96939.31;;;17.40;55.61
73024;BME280;61199;47.526;8.538;2023-05-02T12:59:52;96943.97;;;17.54;55.90
73024;BME280;61199;47.526;8.538;2023-05-02T13:02:20;96935.53;;;17.74;55.34
73024;BME280;61199;47.526;8.538;2023-05-02T13:04:46;96933.03;;;17.88;54.76
73024;BME280;61199;47.526;8.538;2023-05-02T13:07:12;96932.84;;;17.98;53.69
73024;BME280;61199;47.526;8.538;2023-05-02T13:09:39;96932.84;;;18.06;52.39
73024;BME280;61199;47.526;8.538;2023-05-02T13:12:05;96923.72;;;18.16;52.15
73024;BME280;61199;47.526;8.538;2023-05-02T13:14:32;96926.53;;;18.31;51.15
73024;BME280;61199;47.526;8.538;2023-05-02T13:16:58;96938.13;;;18.38;49.79
73024;BME280;61199;47.526;8.538;2023-05-02T13:19:24;96926.50;;;18.39;49.64
73024;BME280;61199;47.526;8.538;2023-05-02T13:21:54;96927.50;;;18.46;50.00
73024;BME280;61199;47.526;8.538;2023-05-02T13:24:20;96930.44;;;18.51;49.36
73024;BME280;61199;47.526;8.538;2023-05-02T13:26:47;96915.66;;;18.56;49.38
73024;BME280;61199;47.526;8.538;2023-05-02T13:29:13;96905.91;;;18.57;48.46
73024;BME280;61199;47.526;8.538;2023-05-02T13:31:39;96891.19;;;18.38;48.72
73024;BME280;61199;47.526;8.538;2023-05-02T13:34:06;96898.81;;;18.41;47.75
73024;BME280;61199;47.526;8.538;2023-05-02T13:36:32;96895.56;;;18.62;46.83
73024;BME280;61199;47.526;8.538;2023-05-02T13:38:58;96898.06;;;18.63;46.84
73024;BME280;61199;47.526;8.538;2023-05-02T13:41:25;96893.00;;;18.46;45.69
73024;BME280;61199;47.526;8.538;2023-05-02T13:43:51;96898.38;;;18.68;45.30
73024;BME280;61199;47.526;8.538;2023-05-02T13:46:18;96890.00;;;18.87;45.47
73024;BME280;61199;47.526;8.538;2023-05-02T13:48:45;96887.59;;;19.00;45.17
73024;BME280;61199;47.526;8.538;2023-05-02T13:51:11;96886.66;;;19.16;44.59